Time,TemperatureF,DewpointF,PressureIn,WindDirection,WindDirectionDegrees,WindSpeedMPH,WindSpeedGustMPH,Humidity,HourlyPrecipIn,Conditions,Clouds,dailyrainin,SoftwareType,DateUTC
2013-02-19 00:00:00,37.4,26.3,30.19,SE,132,0.0,2.0,64,0.00,,,0.00,HR-IXPWINDi_r2_v1.2.,2013-02-19 05:00:00,
2013-02-19 00:05:00,37.4,26.3,30.19,SE,132,0.0,2.0,64,0.00,,,0.00,HR-IXPWINDi_r2_v1.2.,2013-02-19 05:05:00,
2013-02-19 00:10:00,37.4,26.7,30.19,SE,132,0.0,1.0,65,0.00,,,0.00,HR-IXPWINDi_r2_v1.2.,2013-02-19 05:10:00,
2013-02-19 00:15:00,37.3,26.6,30.19,SE,132,0.0,1.0,65,0.00,,,0.00,HR-IXPWINDi_r2_v1.2.,2013-02-19 05:15:00,
2013-02-19 00:21:00,37.0,26.7,30.19,SE,126,2.0,3.0,66,0.00,,,0.00,HR-IXPWINDi_r2_v1.2.,2013-02-19 05:21:00,
2013-02-19 00:26:00,37.4,27.1,30.19,SE,128,1.0,4.0,66,0.00,,,0.00,HR-IXPWINDi_r2_v1.2.,2013-02-19 05:26:00,
2013-02-19 00:31:00,37.6,26.5,30.18,SSE,150,0.0,5.0,64,0.00,,,0.00,HR-IXPWINDi_r2_v1.2.,2013-02-19 05:31:00,
2013-02-19 00:36:00,37.7,26.6,30.18,SSE,149,0.0,5.0,64,0.00,,,0.00,HR-IXPWINDi_r2_v1.2.,2013-02-19 05:36:00,
2013-02-19 00:42:00,37.3,26.6,30.18,SE,142,0.0,3.0,65,0.00,,,0.00,HR-IXPWINDi_r2_v1.2.,2013-02-19 05:42:00,
2013-02-19 00:47:00,36.8,26.5,30.18,SE,142,0.0,1.0,66,0.00,,,0.00,HR-IXPWINDi_r2_v1.2.,2013-02-19 05:47:00,
2013-02-19 00:52:00,36.4,26.1,30.18,SE,126,1.0,4.0,66,0.00,,,0.00,HR-IXPWINDi_r2_v1.2.,2013-02-19 05:52:00,
2013-02-19 00:57:00,36.4,26.5,30.18,South,174,2.0,4.0,67,0.00,,,0.00,HR-IXPWINDi_r2_v1.2.,2013-02-19 05:57:00,
2013-02-19 01:02:00,36.6,27.0,30.18,SSE,167,0.0,4.0,68,0.00,,,0.00,HR-IXPWINDi_r2_v1.2.,2013-02-19 06:02:00,
2013-02-19 01:08:00,36.8,27.2,30.18,SSE,157,1.0,3.0,68,0.00,,,0.00,HR-IXPWINDi_r2_v1.2.,2013-02-19 06:08:00,
2013-02-19 01:13:00,36.9,26.6,30.17,SSE,155,0.0,3.0,66,0.00,,,0.00,HR-IXPWINDi_r2_v1.2.,2013-02-19 06:13:00,
2013-02-19 01:18:00,36.7,26.4,30.17,SSE,155,0.0,2.0,66,0.00,,,0.00,HR-IXPWINDi_r2_v1.2.,2013-02-19 06:18:00,
2013-02-19 01:23:00,36.5,26.9,30.17,SSW,208,0.0,3.0,68,0.00,,,0.00,HR-IXPWINDi_r2_v1.2.,2013-02-19 06:23:00,
2013-02-19 01:29:00,36.3,26.4,30.16,SSW,208,0.0,3.0,67,0.00,,,0.00,HR-IXPWINDi_r2_v1.2.,2013-02-19 06:29:00,
2013-02-19 01:34:00,36.6,26.7,30.16,South,179,0.0,6.0,67,0.00,,,0.00,HR-IXPWINDi_r2_v1.2.,2013-02-19 06:34:00,
2013-02-19 01:39:00,36.4,26.5,30.17,South,181,0.0,6.0,67,0.00,,,0.00,HR-IXPWINDi_r2_v1.2.,2013-02-19 06:39:00,
2013-02-19 01:44:00,36.1,26.2,30.16,South,181,0.0,2.0,67,0.00,,,0.00,HR-IXPWINDi_r2_v1.2.,2013-02-19 06:44:00,
2013-02-19 01:49:00,35.7,26.2,30.16,South,178,0.0,3.0,68,0.00,,,0.00,HR-IXPWINDi_r2_v1.2.,2013-02-19 06:49:00,
2013-02-19 01:54:00,35.7,26.5,30.15,SW,232,0.0,3.0,69,0.00,,,0.00,HR-IXPWINDi_r2_v1.2.,2013-02-19 06:54:00,
2013-02-19 02:00:00,35.7,26.5,30.14,WSW,244,0.0,2.0,69,0.00,,,0.00,HR-IXPWINDi_r2_v1.2.,2013-02-19 07:00:00,
2013-02-19 02:05:00,35.6,26.4,30.14,WSW,244,0.0,2.0,69,0.00,,,0.00,HR-IXPWINDi_r2_v1.2.,2013-02-19 07:05:00,
2013-02-19 02:10:00,35.3,26.1,30.14,WSW,244,0.0,2.0,69,0.00,,,0.00,HR-IXPWINDi_r2_v1.2.,2013-02-19 07:10:00,
2013-02-19 02:15:00,35.2,26.4,30.14,WSW,244,0.0,2.0,70,0.00,,,0.00,HR-IXPWINDi_r2_v1.2.,2013-02-19 07:15:00,
2013-02-19 02:20:00,35.1,26.6,30.15,SSW,207,0.0,1.0,71,0.00,,,0.00,HR-IXPWINDi_r2_v1.2.,2013-02-19 07:20:00,
2013-02-19 02:26:00,35.0,26.2,30.14,East,99,2.0,3.0,70,0.00,,,0.00,HR-IXPWINDi_r2_v1.2.,2013-02-19 07:26:00,
2013-02-19 02:31:00,35.2,26.7,30.13,East,90,2.0,5.0,71,0.00,,,0.00,HR-IXPWINDi_r2_v1.2.,2013-02-19 07:31:00,
2013-02-19 02:36:00,35.2,26.4,30.13,SE,130,2.0,5.0,70,0.00,,,0.00,HR-IXPWINDi_r2_v1.2.,2013-02-19 07:36:00,
2013-02-19 02:41:00,35.7,26.5,30.11,SE,130,0.0,3.0,69,0.00,,,0.00,HR-IXPWINDi_r2_v1.2.,2013-02-19 07:41:00,
2013-02-19 02:46:00,36.2,27.0,30.12,SE,137,0.0,3.0,69,0.00,,,0.00,HR-IXPWINDi_r2_v1.2.,2013-02-19 07:46:00,
2013-02-19 02:51:00,35.9,27.1,30.11,SE,130,2.0,2.0,70,0.00,,,0.00,HR-IXPWINDi_r2_v1.2.,2013-02-19 07:51:00,
2013-02-19 02:56:00,35.5,26.3,30.11,ESE,113,0.0,3.0,69,0.00,,,0.00,HR-IXPWINDi_r2_v1.2.,2013-02-19 07:56:00,
2013-02-19 03:01:00,35.4,26.6,30.10,ESE,113,0.0,3.0,70,0.00,,,0.00,HR-IXPWINDi_r2_v1.2.,2013-02-19 08:01:00,
2013-02-19 03:06:00,35.2,26.4,30.10,ESE,113,1.0,1.0,70,0.00,,,0.00,HR-IXPWINDi_r2_v1.2.,2013-02-19 08:06:00,
2013-02-19 03:12:00,35.2,26.4,30.10,ESE,113,0.0,1.0,70,0.00,,,0.00,HR-IXPWINDi_r2_v1.2.,2013-02-19 08:12:00,
2013-02-19 03:17:00,35.2,26.4,30.10,ESE,113,0.0,1.0,70,0.00,,,0.00,HR-IXPWINDi_r2_v1.2.,2013-02-19 08:17:00,
2013-02-19 03:22:00,35.2,26.4,30.09,ESE,113,0.0,0.0,70,0.00,,,0.00,HR-IXPWINDi_r2_v1.2.,2013-02-19 08:22:00,
2013-02-19 03:27:00,35.1,26.3,30.09,ESE,113,0.0,1.0,70,0.00,,,0.00,HR-IXPWINDi_r2_v1.2.,2013-02-19 08:27:00,
2013-02-19 03:32:00,35.2,26.4,30.09,ESE,113,0.0,2.0,70,0.00,,,0.00,HR-IXPWINDi_r2_v1.2.,2013-02-19 08:32:00,
2013-02-19 03:38:00,35.3,26.5,30.09,ESE,113,0.0,2.0,70,0.00,,,0.00,HR-IXPWINDi_r2_v1.2.,2013-02-19 08:38:00,
2013-02-19 03:43:00,35.2,26.7,30.09,ESE,113,0.0,1.0,71,0.00,,,0.00,HR-IXPWINDi_r2_v1.2.,2013-02-19 08:43:00,
2013-02-19 03:48:00,35.2,26.7,30.09,ESE,113,0.0,1.0,71,0.00,,,0.00,HR-IXPWINDi_r2_v1.2.,2013-02-19 08:48:00,
2013-02-19 03:53:00,35.1,26.6,30.10,SSE,148,0.0,3.0,71,0.00,,,0.00,HR-IXPWINDi_r2_v1.2.,2013-02-19 08:53:00,
2013-02-19 03:58:00,35.0,26.5,30.09,SSE,148,0.0,3.0,71,0.00,,,0.00,HR-IXPWINDi_r2_v1.2.,2013-02-19 08:58:00,
2013-02-19 04:03:00,35.2,27.1,30.09,SSE,148,0.0,2.0,72,0.00,,,0.00,HR-IXPWINDi_r2_v1.2.,2013-02-19 09:03:00,
2013-02-19 04:09:00,35.2,27.1,30.08,SSE,148,0.0,2.0,72,0.00,,,0.00,HR-IXPWINDi_r2_v1.2.,2013-02-19 09:09:00,
2013-02-19 04:14:00,35.2,27.1,30.08,SSE,148,0.0,2.0,72,0.00,,,0.00,HR-IXPWINDi_r2_v1.2.,2013-02-19 09:14:00,
2013-02-19 04:19:00,35.3,27.2,30.08,SSE,148,0.0,1.0,72,0.00,,,0.00,HR-IXPWINDi_r2_v1.2.,2013-02-19 09:19:00,
2013-02-19 04:24:00,35.2,27.1,30.08,South,175,0.0,4.0,72,0.00,,,0.00,HR-IXPWINDi_r2_v1.2.,2013-02-19 09:24:00,
2013-02-19 04:29:00,35.2,27.1,30.07,South,175,0.0,4.0,72,0.00,,,0.00,HR-IXPWINDi_r2_v1.2.,2013-02-19 09:29:00,
2013-02-19 04:35:00,35.2,27.4,30.08,South,175,0.0,1.0,73,0.00,,,0.00,HR-IXPWINDi_r2_v1.2.,2013-02-19 09:35:00,
2013-02-19 04:40:00,35.2,27.1,30.08,South,175,0.0,0.0,72,0.00,,,0.00,HR-IXPWINDi_r2_v1.2.,2013-02-19 09:40:00,
2013-02-19 04:45:00,35.3,27.5,30.07,South,171,0.0,2.0,73,0.00,,,0.00,HR-IXPWINDi_r2_v1.2.,2013-02-19 09:45:00,
2013-02-19 04:50:00,35.4,27.9,30.08,South,171,0.0,2.0,74,0.00,,,0.00,HR-IXPWINDi_r2_v1.2.,2013-02-19 09:50:00,
2013-02-19 04:55:00,35.4,27.3,30.08,South,171,0.0,0.0,72,0.00,,,0.00,HR-IXPWINDi_r2_v1.2.,2013-02-19 09:55:00,
2013-02-19 05:01:00,35.5,27.4,30.08,South,171,0.0,1.0,72,0.00,,,0.00,HR-IXPWINDi_r2_v1.2.,2013-02-19 10:01:00,
2013-02-19 05:06:00,35.6,27.5,30.09,South,171,0.0,1.0,72,0.00,,,0.00,HR-IXPWINDi_r2_v1.2.,2013-02-19 10:06:00,
2013-02-19 05:11:00,35.7,27.9,30.08,South,171,0.0,1.0,73,0.00,,,0.00,HR-IXPWINDi_r2_v1.2.,2013-02-19 10:11:00,
2013-02-19 05:16:00,35.8,27.6,30.08,South,171,0.0,1.0,72,0.00,,,0.00,HR-IXPWINDi_r2_v1.2.,2013-02-19 10:16:00,
2013-02-19 05:21:00,35.9,28.1,30.08,South,171,0.0,1.0,73,0.00,,,0.00,HR-IXPWINDi_r2_v1.2.,2013-02-19 10:21:00,
2013-02-19 05:27:00,36.0,27.5,30.08,South,171,1.0,2.0,71,0.00,,,0.00,HR-IXPWINDi_r2_v1.2.,2013-02-19 10:27:00,
2013-02-19 05:32:00,36.2,27.7,30.08,South,171,0.0,2.0,71,0.00,,,0.00,HR-IXPWINDi_r2_v1.2.,2013-02-19 10:32:00,
2013-02-19 05:37:00,36.2,28.0,30.08,South,171,0.0,2.0,72,0.00,,,0.00,HR-IXPWINDi_r2_v1.2.,2013-02-19 10:37:00,
2013-02-19 05:42:00,36.4,27.5,30.07,South,171,0.0,1.0,70,0.00,,,0.00,HR-IXPWINDi_r2_v1.2.,2013-02-19 10:42:00,
2013-02-19 05:47:00,36.5,28.0,30.07,South,171,0.0,1.0,71,0.00,,,0.00,HR-IXPWINDi_r2_v1.2.,2013-02-19 10:47:00,
2013-02-19 05:53:00,36.5,28.0,30.07,South,171,0.0,0.0,71,0.00,,,0.00,HR-IXPWINDi_r2_v1.2.,2013-02-19 10:53:00,
2013-02-19 05:58:00,36.5,27.3,30.07,South,171,0.0,0.0,69,0.00,,,0.00,HR-IXPWINDi_r2_v1.2.,2013-02-19 10:58:00,
2013-02-19 06:03:00,36.7,28.5,30.07,ESE,123,0.0,3.0,72,0.00,,,0.00,HR-IXPWINDi_r2_v1.2.,2013-02-19 11:03:00,
2013-02-19 06:08:00,36.5,28.7,30.07,SSE,153,0.0,3.0,73,0.00,,,0.00,HR-IXPWINDi_r2_v1.2.,2013-02-19 11:08:00,
2013-02-19 06:13:00,36.4,27.5,30.07,SSE,153,0.0,3.0,70,0.00,,,0.00,HR-IXPWINDi_r2_v1.2.,2013-02-19 11:13:00,
2013-02-19 06:19:00,37.8,27.8,30.07,ESE,109,0.0,5.0,67,0.00,,,0.00,HR-IXPWINDi_r2_v1.2.,2013-02-19 11:19:00,
2013-02-19 06:24:00,38.4,27.6,30.07,ESE,104,0.0,5.0,65,0.00,,,0.00,HR-IXPWINDi_r2_v1.2.,2013-02-19 11:24:00,
2013-02-19 06:29:00,39.6,27.2,30.06,East,88,3.0,7.0,61,0.00,,,0.00,HR-IXPWINDi_r2_v1.2.,2013-02-19 11:29:00,
2013-02-19 06:34:00,40.6,28.2,30.06,NW,311,0.0,7.0,61,0.00,,,0.00,HR-IXPWINDi_r2_v1.2.,2013-02-19 11:34:00,
2013-02-19 06:40:00,41.1,27.0,30.07,WNW,284,0.0,5.0,57,0.00,,,0.00,HR-IXPWINDi_r2_v1.2.,2013-02-19 11:40:00,
2013-02-19 06:45:00,41.6,28.3,30.08,SE,131,3.0,5.0,59,0.00,,,0.00,HR-IXPWINDi_r2_v1.2.,2013-02-19 11:45:00,
2013-02-19 06:50:00,41.8,32.0,30.09,WNW,297,6.0,8.0,68,0.00,,,0.00,HR-IXPWINDi_r2_v1.2.,2013-02-19 11:50:00,
2013-02-19 06:55:00,41.0,32.6,30.08,WSW,246,2.0,8.0,72,0.00,,,0.01,HR-IXPWINDi_r2_v1.2.,2013-02-19 11:55:00,
2013-02-19 07:00:00,40.4,33.4,30.07,SE,134,0.0,7.0,76,0.00,,,0.01,HR-IXPWINDi_r2_v1.2.,2013-02-19 12:00:00,
2013-02-19 07:06:00,39.8,33.5,30.06,West,279,1.0,7.0,78,0.06,,,0.02,HR-IXPWINDi_r2_v1.2.,2013-02-19 12:06:00,
2013-02-19 07:11:00,39.3,33.6,30.07,WNW,292,0.0,3.0,80,0.06,,,0.02,HR-IXPWINDi_r2_v1.2.,2013-02-19 12:11:00,
2013-02-19 07:16:00,38.7,33.6,30.06,NNW,348,0.0,4.0,82,0.04,,,0.02,HR-IXPWINDi_r2_v1.2.,2013-02-19 12:16:00,
2013-02-19 07:22:00,38.2,33.5,30.06,North,355,1.0,4.0,83,0.00,,,0.02,HR-IXPWINDi_r2_v1.2.,2013-02-19 12:22:00,
2013-02-19 07:27:00,37.7,33.9,30.06,North,355,0.0,3.0,86,0.00,,,0.02,HR-IXPWINDi_r2_v1.2.,2013-02-19 12:27:00,
2013-02-19 07:32:00,37.5,33.9,30.06,North,355,0.0,2.0,87,0.00,,,0.02,HR-IXPWINDi_r2_v1.2.,2013-02-19 12:32:00,
2013-02-19 07:37:00,37.4,33.8,30.06,North,355,0.0,1.0,87,0.00,,,0.02,HR-IXPWINDi_r2_v1.2.,2013-02-19 12:37:00,
2013-02-19 07:42:00,37.4,34.1,30.06,ENE,67,0.0,1.0,88,0.00,,,0.02,HR-IXPWINDi_r2_v1.2.,2013-02-19 12:42:00,
2013-02-19 07:48:00,37.3,34.3,30.05,ENE,67,0.0,1.0,89,0.00,,,0.03,HR-IXPWINDi_r2_v1.2.,2013-02-19 12:48:00,
2013-02-19 07:53:00,37.3,34.3,30.05,ENE,67,0.0,1.0,89,0.00,,,0.03,HR-IXPWINDi_r2_v1.2.,2013-02-19 12:53:00,
2013-02-19 07:58:00,37.1,34.4,30.05,ENE,67,0.0,1.0,90,0.04,,,0.04,HR-IXPWINDi_r2_v1.2.,2013-02-19 12:58:00,
2013-02-19 08:03:00,37.1,34.4,30.05,SE,124,0.0,2.0,90,0.04,,,0.04,HR-IXPWINDi_r2_v1.2.,2013-02-19 13:03:00,
2013-02-19 08:08:00,37.0,34.6,30.05,SE,124,0.0,2.0,91,0.06,,,0.05,HR-IXPWINDi_r2_v1.2.,2013-02-19 13:08:00,
2013-02-19 08:14:00,36.8,34.7,30.04,NW,306,0.0,1.0,92,0.06,,,0.05,HR-IXPWINDi_r2_v1.2.,2013-02-19 13:14:00,
2013-02-19 08:19:00,36.7,34.6,30.03,NW,306,0.0,1.0,92,0.05,,,0.05,HR-IXPWINDi_r2_v1.2.,2013-02-19 13:19:00,
2013-02-19 08:24:00,36.7,34.6,30.03,SSE,160,1.0,3.0,92,0.04,,,0.05,HR-IXPWINDi_r2_v1.2.,2013-02-19 13:24:00,
2013-02-19 08:29:00,36.8,34.9,30.02,SSE,161,0.0,3.0,93,0.00,,,0.05,HR-IXPWINDi_r2_v1.2.,2013-02-19 13:29:00,
2013-02-19 08:34:00,36.8,34.9,30.01,SSE,160,0.0,2.0,93,0.00,,,0.05,HR-IXPWINDi_r2_v1.2.,2013-02-19 13:34:00,
2013-02-19 08:39:00,36.8,34.9,30.01,SSE,160,0.0,2.0,93,0.00,,,0.05,HR-IXPWINDi_r2_v1.2.,2013-02-19 13:39:00,
2013-02-19 08:44:00,36.8,35.2,30.01,SSE,160,0.0,1.0,94,0.00,,,0.05,HR-IXPWINDi_r2_v1.2.,2013-02-19 13:44:00,
2013-02-19 08:50:00,36.8,35.2,30.01,SSE,160,0.0,1.0,94,0.00,,,0.05,HR-IXPWINDi_r2_v1.2.,2013-02-19 13:50:00,
2013-02-19 08:55:00,36.9,35.3,30.00,SSE,160,0.0,1.0,94,0.00,,,0.05,HR-IXPWINDi_r2_v1.2.,2013-02-19 13:55:00,
2013-02-19 09:00:00,37.0,35.4,30.00,SSE,160,0.0,0.0,94,0.00,,,0.05,HR-IXPWINDi_r2_v1.2.,2013-02-19 14:00:00,
2013-02-19 09:05:00,37.1,35.8,30.00,SSE,160,0.0,0.0,95,0.00,,,0.05,HR-IXPWINDi_r2_v1.2.,2013-02-19 14:05:00,
2013-02-19 09:11:00,37.2,35.9,29.99,SSE,160,0.0,2.0,95,0.00,,,0.05,HR-IXPWINDi_r2_v1.2.,2013-02-19 14:11:00,
2013-02-19 09:16:00,37.3,36.0,29.99,SSE,160,0.0,2.0,95,0.00,,,0.05,HR-IXPWINDi_r2_v1.2.,2013-02-19 14:16:00,
2013-02-19 09:21:00,37.4,36.1,29.98,SSE,160,1.0,1.0,95,0.00,,,0.05,HR-IXPWINDi_r2_v1.2.,2013-02-19 14:21:00,
2013-02-19 09:26:00,37.5,36.2,29.98,SSE,160,0.0,2.0,95,0.00,,,0.05,HR-IXPWINDi_r2_v1.2.,2013-02-19 14:26:00,
2013-02-19 09:31:00,37.7,36.4,29.98,SE,143,0.0,2.0,95,0.00,,,0.05,HR-IXPWINDi_r2_v1.2.,2013-02-19 14:31:00,
2013-02-19 09:36:00,37.9,36.6,29.98,SE,142,0.0,2.0,95,0.00,,,0.05,HR-IXPWINDi_r2_v1.2.,2013-02-19 14:36:00,
2013-02-19 09:42:00,38.0,36.7,29.98,SE,142,0.0,2.0,95,0.00,,,0.05,HR-IXPWINDi_r2_v1.2.,2013-02-19 14:42:00,
2013-02-19 09:47:00,38.2,37.1,29.97,SE,142,0.0,2.0,96,0.00,,,0.05,HR-IXPWINDi_r2_v1.2.,2013-02-19 14:47:00,
2013-02-19 09:52:00,38.4,37.3,29.97,SE,143,0.0,1.0,96,0.00,,,0.05,HR-IXPWINDi_r2_v1.2.,2013-02-19 14:52:00,
2013-02-19 09:57:00,38.7,37.6,29.97,SE,142,0.0,1.0,96,0.00,,,0.05,HR-IXPWINDi_r2_v1.2.,2013-02-19 14:57:00,
2013-02-19 10:03:00,39.0,37.9,29.96,SE,135,0.0,2.0,96,0.00,,,0.05,HR-IXPWINDi_r2_v1.2.,2013-02-19 15:03:00,
2013-02-19 10:08:00,39.3,38.2,29.96,SE,135,0.0,2.0,96,0.00,,,0.05,HR-IXPWINDi_r2_v1.2.,2013-02-19 15:08:00,
2013-02-19 10:13:00,39.6,38.5,29.96,SE,135,0.0,2.0,96,0.00,,,0.05,HR-IXPWINDi_r2_v1.2.,2013-02-19 15:13:00,
2013-02-19 10:18:00,39.8,38.7,29.96,SE,135,0.0,2.0,96,0.00,,,0.05,HR-IXPWINDi_r2_v1.2.,2013-02-19 15:18:00,
2013-02-19 10:24:00,39.9,38.8,29.97,SE,135,0.0,1.0,96,0.00,,,0.05,HR-IXPWINDi_r2_v1.2.,2013-02-19 15:24:00,
2013-02-19 10:29:00,40.0,38.6,29.96,ESE,123,0.0,2.0,95,0.00,,,0.05,HR-IXPWINDi_r2_v1.2.,2013-02-19 15:29:00,
2013-02-19 10:34:00,40.0,38.6,29.96,SE,124,0.0,2.0,95,0.00,,,0.05,HR-IXPWINDi_r2_v1.2.,2013-02-19 15:34:00,
2013-02-19 10:39:00,40.0,38.6,29.96,SE,124,0.0,1.0,95,0.00,,,0.05,HR-IXPWINDi_r2_v1.2.,2013-02-19 15:39:00,
2013-02-19 10:45:00,40.1,38.7,29.96,SE,124,0.0,0.0,95,0.00,,,0.05,HR-IXPWINDi_r2_v1.2.,2013-02-19 15:45:00,
2013-02-19 10:50:00,40.2,38.8,29.95,SE,124,0.0,1.0,95,0.00,,,0.05,HR-IXPWINDi_r2_v1.2.,2013-02-19 15:50:00,
2013-02-19 10:55:00,40.2,38.8,29.96,SE,124,0.0,1.0,95,0.00,,,0.05,HR-IXPWINDi_r2_v1.2.,2013-02-19 15:55:00,
2013-02-19 11:00:00,40.3,38.9,29.95,SE,124,0.0,1.0,95,0.00,,,0.05,HR-IXPWINDi_r2_v1.2.,2013-02-19 16:00:00,
2013-02-19 11:05:00,40.4,39.0,29.95,SE,124,1.0,1.0,95,0.00,,,0.05,HR-IXPWINDi_r2_v1.2.,2013-02-19 16:05:00,
2013-02-19 11:11:00,40.6,39.2,29.95,ESE,123,0.0,2.0,95,0.00,,,0.05,HR-IXPWINDi_r2_v1.2.,2013-02-19 16:11:00,
2013-02-19 11:16:00,40.8,39.4,29.94,ESE,123,0.0,2.0,95,0.00,,,0.05,HR-IXPWINDi_r2_v1.2.,2013-02-19 16:16:00,
2013-02-19 11:21:00,41.0,39.6,29.94,ESE,121,0.0,2.0,95,0.00,,,0.05,HR-IXPWINDi_r2_v1.2.,2013-02-19 16:21:00,
2013-02-19 11:26:00,41.3,40.2,29.94,ESE,121,0.0,2.0,96,0.00,,,0.05,HR-IXPWINDi_r2_v1.2.,2013-02-19 16:26:00,
2013-02-19 11:32:00,41.4,40.0,29.94,ESE,121,0.0,0.0,95,0.00,,,0.05,HR-IXPWINDi_r2_v1.2.,2013-02-19 16:32:00,
2013-02-19 11:37:00,41.5,40.1,29.94,ESE,121,0.0,0.0,95,0.00,,,0.05,HR-IXPWINDi_r2_v1.2.,2013-02-19 16:37:00,
2013-02-19 11:42:00,41.6,40.2,29.93,ESE,121,0.0,0.0,95,0.00,,,0.05,HR-IXPWINDi_r2_v1.2.,2013-02-19 16:42:00,
2013-02-19 11:47:00,41.9,40.5,29.93,ESE,121,0.0,0.0,95,0.00,,,0.05,HR-IXPWINDi_r2_v1.2.,2013-02-19 16:47:00,
2013-02-19 11:52:00,42.2,40.5,29.93,ESE,121,0.0,0.0,94,0.00,,,0.05,HR-IXPWINDi_r2_v1.2.,2013-02-19 16:52:00,
2013-02-19 11:58:00,42.5,40.8,29.92,ESE,121,0.0,0.0,94,0.00,,,0.05,HR-IXPWINDi_r2_v1.2.,2013-02-19 16:58:00,
2013-02-19 12:03:00,43.0,41.1,29.91,ESE,117,2.0,2.0,93,0.00,,,0.05,HR-IXPWINDi_r2_v1.2.,2013-02-19 17:03:00,
2013-02-19 12:08:00,43.7,41.8,29.91,ESE,117,0.0,3.0,93,0.00,,,0.05,HR-IXPWINDi_r2_v1.2.,2013-02-19 17:08:00,
2013-02-19 12:13:00,44.5,42.3,29.90,ESE,116,2.0,3.0,92,0.00,,,0.05,HR-IXPWINDi_r2_v1.2.,2013-02-19 17:13:00,
2013-02-19 12:18:00,45.4,42.9,29.90,ESE,118,1.0,2.0,91,0.00,,,0.05,HR-IXPWINDi_r2_v1.2.,2013-02-19 17:18:00,
2013-02-19 12:24:00,46.4,43.0,29.89,ESE,118,0.0,2.0,88,0.00,,,0.05,HR-IXPWINDi_r2_v1.2.,2013-02-19 17:24:00,
2013-02-19 12:29:00,47.7,44.0,29.89,ESE,103,1.0,3.0,87,0.00,,,0.05,HR-IXPWINDi_r2_v1.2.,2013-02-19 17:29:00,
2013-02-19 12:34:00,48.6,44.2,29.89,SE,132,0.0,3.0,85,0.00,,,0.05,HR-IXPWINDi_r2_v1.2.,2013-02-19 17:34:00,
2013-02-19 12:39:00,48.9,42.9,29.88,ESE,103,1.0,4.0,80,0.00,,,0.05,HR-IXPWINDi_r2_v1.2.,2013-02-19 17:39:00,
2013-02-19 12:45:00,49.5,41.2,29.88,North,355,6.0,8.0,73,0.00,,,0.05,HR-IXPWINDi_r2_v1.2.,2013-02-19 17:45:00,
2013-02-19 12:50:00,49.8,41.4,29.87,NNW,335,6.0,10.0,73,0.00,,,0.05,HR-IXPWINDi_r2_v1.2.,2013-02-19 17:50:00,
2013-02-19 12:55:00,50.0,41.3,29.87,West,264,1.0,10.0,72,0.00,,,0.05,HR-IXPWINDi_r2_v1.2.,2013-02-19 17:55:00,
2013-02-19 13:00:00,50.6,42.9,29.87,SSW,205,3.0,9.0,75,0.00,,,0.05,HR-IXPWINDi_r2_v1.2.,2013-02-19 18:00:00,
2013-02-19 13:05:00,51.4,42.3,29.87,ENE,76,2.0,11.0,71,0.00,,,0.05,HR-IXPWINDi_r2_v1.2.,2013-02-19 18:05:00,
2013-02-19 13:11:00,51.3,41.4,29.86,NW,321,2.0,11.0,69,0.00,,,0.05,HR-IXPWINDi_r2_v1.2.,2013-02-19 18:11:00,
2013-02-19 13:16:00,50.8,41.3,29.86,NNW,342,7.0,11.0,70,0.00,,,0.05,HR-IXPWINDi_r2_v1.2.,2013-02-19 18:16:00,
2013-02-19 13:21:00,50.5,41.0,29.86,WNW,285,0.0,11.0,70,0.00,,,0.05,HR-IXPWINDi_r2_v1.2.,2013-02-19 18:21:00,
2013-02-19 13:27:00,50.3,40.8,29.86,NW,309,1.0,11.0,70,0.00,,,0.05,HR-IXPWINDi_r2_v1.2.,2013-02-19 18:27:00,
2013-02-19 13:32:00,50.5,41.0,29.85,NNW,330,5.0,11.0,70,0.00,,,0.05,HR-IXPWINDi_r2_v1.2.,2013-02-19 18:32:00,
2013-02-19 13:37:00,50.9,41.4,29.85,North,9,4.0,9.0,70,0.00,,,0.05,HR-IXPWINDi_r2_v1.2.,2013-02-19 18:37:00,
2013-02-19 13:42:00,51.2,41.3,29.85,WNW,290,0.0,8.0,69,0.00,,,0.05,HR-IXPWINDi_r2_v1.2.,2013-02-19 18:42:00,
2013-02-19 13:47:00,51.2,41.0,29.84,West,277,2.0,13.0,68,0.00,,,0.05,HR-IXPWINDi_r2_v1.2.,2013-02-19 18:47:00,
2013-02-19 13:52:00,50.9,41.4,29.84,NW,319,4.0,13.0,70,0.00,,,0.05,HR-IXPWINDi_r2_v1.2.,2013-02-19 18:52:00,
2013-02-19 13:57:00,50.9,40.3,29.84,NNW,341,3.0,12.0,67,0.00,,,0.05,HR-IXPWINDi_r2_v1.2.,2013-02-19 18:57:00,
2013-02-19 14:03:00,51.4,40.8,29.84,SE,133,8.0,12.0,67,0.00,,,0.05,HR-IXPWINDi_r2_v1.2.,2013-02-19 19:03:00,
2013-02-19 14:08:00,51.5,41.2,29.83,North,5,2.0,10.0,68,0.00,,,0.05,HR-IXPWINDi_r2_v1.2.,2013-02-19 19:08:00,
2013-02-19 14:13:00,51.8,40.0,29.83,WNW,302,6.0,10.0,64,0.00,,,0.05,HR-IXPWINDi_r2_v1.2.,2013-02-19 19:13:00,
2013-02-19 14:19:00,51.8,39.2,29.83,NW,316,5.0,10.0,62,0.00,,,0.05,HR-IXPWINDi_r2_v1.2.,2013-02-19 19:19:00,
2013-02-19 14:24:00,51.3,38.7,29.83,NW,323,3.0,10.0,62,0.00,,,0.05,HR-IXPWINDi_r2_v1.2.,2013-02-19 19:24:00,
2013-02-19 14:29:00,51.6,38.5,29.83,NW,309,4.0,11.0,61,0.00,,,0.05,HR-IXPWINDi_r2_v1.2.,2013-02-19 19:29:00,
2013-02-19 14:34:00,51.9,38.4,29.83,South,184,3.0,11.0,60,0.00,,,0.05,HR-IXPWINDi_r2_v1.2.,2013-02-19 19:34:00,
2013-02-19 14:39:00,51.8,36.1,29.83,NW,314,9.0,17.0,55,0.00,,,0.05,HR-IXPWINDi_r2_v1.2.,2013-02-19 19:39:00,
2013-02-19 14:44:00,51.5,35.8,29.83,NNW,340,5.0,17.0,55,0.00,,,0.05,HR-IXPWINDi_r2_v1.2.,2013-02-19 19:44:00,
2013-02-19 14:49:00,51.4,35.3,29.83,WNW,295,3.0,13.0,54,0.00,,,0.05,HR-IXPWINDi_r2_v1.2.,2013-02-19 19:49:00,
2013-02-19 14:54:00,51.0,34.9,29.83,North,5,8.0,16.0,54,0.00,,,0.05,HR-IXPWINDi_r2_v1.2.,2013-02-19 19:54:00,
2013-02-19 15:00:00,50.9,34.8,29.82,WNW,293,3.0,16.0,54,0.00,,,0.05,HR-IXPWINDi_r2_v1.2.,2013-02-19 20:00:00,
2013-02-19 15:05:00,51.1,35.0,29.83,SE,146,6.0,16.0,54,0.00,,,0.05,HR-IXPWINDi_r2_v1.2.,2013-02-19 20:05:00,
2013-02-19 15:10:00,51.0,35.4,29.82,NW,322,3.0,16.0,55,0.00,,,0.05,HR-IXPWINDi_r2_v1.2.,2013-02-19 20:10:00,
2013-02-19 15:15:00,51.2,36.0,29.82,SSE,153,6.0,15.0,56,0.00,,,0.05,HR-IXPWINDi_r2_v1.2.,2013-02-19 20:15:00,
2013-02-19 15:21:00,51.3,35.6,29.82,West,271,3.0,10.0,55,0.00,,,0.05,HR-IXPWINDi_r2_v1.2.,2013-02-19 20:21:00,
2013-02-19 15:26:00,51.0,35.4,29.82,ENE,68,2.0,13.0,55,0.00,,,0.05,HR-IXPWINDi_r2_v1.2.,2013-02-19 20:26:00,
2013-02-19 15:31:00,51.1,35.5,29.82,NE,38,2.0,15.0,55,0.00,,,0.06,HR-IXPWINDi_r2_v1.2.,2013-02-19 20:31:00,
2013-02-19 15:36:00,50.6,35.0,29.82,North,5,7.0,15.0,55,0.00,,,0.06,HR-IXPWINDi_r2_v1.2.,2013-02-19 20:36:00,
2013-02-19 15:42:00,50.3,34.7,29.82,NW,312,3.0,17.0,55,0.00,,,0.06,HR-IXPWINDi_r2_v1.2.,2013-02-19 20:42:00,
2013-02-19 15:47:00,50.0,35.3,29.83,NW,312,5.0,17.0,57,0.00,,,0.06,HR-IXPWINDi_r2_v1.2.,2013-02-19 20:47:00,
2013-02-19 15:52:00,49.7,34.6,29.82,WNW,285,1.0,12.0,56,0.00,,,0.06,HR-IXPWINDi_r2_v1.2.,2013-02-19 20:52:00,
2013-02-19 15:57:00,49.7,34.2,29.82,NW,310,0.0,14.0,55,0.00,,,0.06,HR-IXPWINDi_r2_v1.2.,2013-02-19 20:57:00,
2013-02-19 16:02:00,49.8,33.8,29.82,NW,306,1.0,14.0,54,0.00,,,0.06,HR-IXPWINDi_r2_v1.2.,2013-02-19 21:02:00,
2013-02-19 16:08:00,49.9,34.3,29.83,ESE,121,5.0,12.0,55,0.00,,,0.06,HR-IXPWINDi_r2_v1.2.,2013-02-19 21:08:00,
2013-02-19 16:13:00,49.9,32.9,29.82,NNE,13,2.0,10.0,52,0.00,,,0.06,HR-IXPWINDi_r2_v1.2.,2013-02-19 21:13:00,
2013-02-19 16:18:00,50.2,32.2,29.83,NNW,329,1.0,10.0,50,0.00,,,0.06,HR-IXPWINDi_r2_v1.2.,2013-02-19 21:18:00,
2013-02-19 16:23:00,50.3,33.3,29.83,NNE,32,2.0,10.0,52,0.00,,,0.06,HR-IXPWINDi_r2_v1.2.,2013-02-19 21:23:00,
2013-02-19 16:28:00,50.3,33.8,29.83,NNW,327,6.0,8.0,53,0.00,,,0.06,HR-IXPWINDi_r2_v1.2.,2013-02-19 21:28:00,
2013-02-19 16:34:00,49.9,32.0,29.84,NNW,339,4.0,10.0,50,0.00,,,0.06,HR-IXPWINDi_r2_v1.2.,2013-02-19 21:34:00,
2013-02-19 16:39:00,49.6,31.2,29.84,NNW,331,6.0,10.0,49,0.00,,,0.06,HR-IXPWINDi_r2_v1.2.,2013-02-19 21:39:00,
2013-02-19 16:44:00,49.3,30.9,29.84,NE,35,8.0,15.0,49,0.00,,,0.06,HR-IXPWINDi_r2_v1.2.,2013-02-19 21:44:00,
2013-02-19 16:49:00,49.1,30.2,29.84,NW,319,1.0,15.0,48,0.00,,,0.06,HR-IXPWINDi_r2_v1.2.,2013-02-19 21:49:00,
2013-02-19 16:54:00,49.0,30.1,29.85,NNW,334,0.0,11.0,48,0.00,,,0.06,HR-IXPWINDi_r2_v1.2.,2013-02-19 21:54:00,
2013-02-19 17:00:00,48.9,30.0,29.84,NNW,332,4.0,8.0,48,0.00,,,0.06,HR-IXPWINDi_r2_v1.2.,2013-02-19 22:00:00,
2013-02-19 17:05:00,48.8,28.9,29.85,NW,323,4.0,10.0,46,0.00,,,0.06,HR-IXPWINDi_r2_v1.2.,2013-02-19 22:05:00,
2013-02-19 17:10:00,49.0,28.6,29.85,NW,309,3.0,10.0,45,0.00,,,0.06,HR-IXPWINDi_r2_v1.2.,2013-02-19 22:10:00,
2013-02-19 17:15:00,48.8,28.4,29.85,NW,319,2.0,9.0,45,0.00,,,0.06,HR-IXPWINDi_r2_v1.2.,2013-02-19 22:15:00,
2013-02-19 17:20:00,48.8,28.4,29.85,East,101,2.0,9.0,45,0.00,,,0.06,HR-IXPWINDi_r2_v1.2.,2013-02-19 22:20:00,
2013-02-19 17:26:00,48.8,28.4,29.85,NW,306,2.0,9.0,45,0.00,,,0.06,HR-IXPWINDi_r2_v1.2.,2013-02-19 22:26:00,
2013-02-19 17:31:00,48.7,27.7,29.86,NW,304,4.0,8.0,44,0.00,,,0.06,HR-IXPWINDi_r2_v1.2.,2013-02-19 22:31:00,
2013-02-19 17:36:00,48.3,26.8,29.86,NNW,346,5.0,10.0,43,0.00,,,0.06,HR-IXPWINDi_r2_v1.2.,2013-02-19 22:36:00,
2013-02-19 17:41:00,48.3,26.8,29.86,NW,310,3.0,10.0,43,0.00,,,0.06,HR-IXPWINDi_r2_v1.2.,2013-02-19 22:41:00,
2013-02-19 17:46:00,48.3,26.3,29.87,NNE,12,1.0,9.0,42,0.00,,,0.06,HR-IXPWINDi_r2_v1.2.,2013-02-19 22:46:00,
2013-02-19 17:52:00,47.9,25.9,29.87,NW,311,8.0,14.0,42,0.00,,,0.06,HR-IXPWINDi_r2_v1.2.,2013-02-19 22:52:00,
2013-02-19 17:57:00,47.9,22.2,29.87,WNW,301,5.0,14.0,36,0.00,,,0.06,HR-IXPWINDi_r2_v1.2.,2013-02-19 22:57:00,
2013-02-19 18:02:00,48.2,20.4,29.88,NW,315,5.0,14.0,33,0.00,,,0.06,HR-IXPWINDi_r2_v1.2.,2013-02-19 23:02:00,
2013-02-19 18:07:00,48.1,21.7,29.88,WNW,302,7.0,12.0,35,0.00,,,0.06,HR-IXPWINDi_r2_v1.2.,2013-02-19 23:07:00,
2013-02-19 18:13:00,47.9,21.6,29.88,NE,49,0.0,11.0,35,0.00,,,0.06,HR-IXPWINDi_r2_v1.2.,2013-02-19 23:13:00,
2013-02-19 18:18:00,47.6,22.6,29.89,NW,316,3.0,11.0,37,0.00,,,0.06,HR-IXPWINDi_r2_v1.2.,2013-02-19 23:18:00,
2013-02-19 18:23:00,47.2,23.5,29.89,NW,304,0.0,8.0,39,0.00,,,0.06,HR-IXPWINDi_r2_v1.2.,2013-02-19 23:23:00,
2013-02-19 18:28:00,47.1,23.4,29.90,North,351,5.0,12.0,39,0.00,,,0.06,HR-IXPWINDi_r2_v1.2.,2013-02-19 23:28:00,
2013-02-19 18:33:00,47.0,23.9,29.90,NNW,339,2.0,13.0,40,0.00,,,0.06,HR-IXPWINDi_r2_v1.2.,2013-02-19 23:33:00,
2013-02-19 18:39:00,46.6,23.6,29.90,NNE,17,4.0,13.0,40,0.00,,,0.06,HR-IXPWINDi_r2_v1.2.,2013-02-19 23:39:00,
2013-02-19 18:44:00,46.5,24.1,29.91,WNW,300,2.0,8.0,41,0.00,,,0.06,HR-IXPWINDi_r2_v1.2.,2013-02-19 23:44:00,
2013-02-19 18:49:00,46.3,23.3,29.91,NW,322,1.0,8.0,40,0.00,,,0.06,HR-IXPWINDi_r2_v1.2.,2013-02-19 23:49:00,
2013-02-19 18:54:00,46.2,23.2,29.91,WNW,299,0.0,8.0,40,0.00,,,0.06,HR-IXPWINDi_r2_v1.2.,2013-02-19 23:54:00,
2013-02-19 18:59:00,45.8,23.4,29.92,ESE,114,3.0,9.0,41,0.00,,,0.06,HR-IXPWINDi_r2_v1.2.,2013-02-19 23:59:00,
2013-02-19 19:04:00,45.9,22.9,29.92,SE,136,3.0,9.0,40,0.00,,,0.06,HR-IXPWINDi_r2_v1.2.,2013-02-20 00:04:00,
2013-02-19 19:09:00,45.7,22.2,29.92,NW,319,1.0,8.0,39,0.00,,,0.06,HR-IXPWINDi_r2_v1.2.,2013-02-20 00:09:00,
2013-02-19 19:15:00,45.4,22.5,29.92,WSW,258,3.0,8.0,40,0.00,,,0.06,HR-IXPWINDi_r2_v1.2.,2013-02-20 00:15:00,
2013-02-19 19:20:00,45.0,22.7,29.92,NW,306,4.0,12.0,41,0.00,,,0.06,HR-IXPWINDi_r2_v1.2.,2013-02-20 00:20:00,
2013-02-19 19:25:00,45.3,22.4,29.93,WSW,238,5.0,12.0,40,0.00,,,0.06,HR-IXPWINDi_r2_v1.2.,2013-02-20 00:25:00,
2013-02-19 19:30:00,45.5,22.0,29.93,East,96,0.0,14.0,39,0.00,,,0.06,HR-IXPWINDi_r2_v1.2.,2013-02-20 00:30:00,
2013-02-19 19:35:00,45.2,21.1,29.93,NW,304,0.0,14.0,38,0.00,,,0.06,HR-IXPWINDi_r2_v1.2.,2013-02-20 00:35:00,
2013-02-19 19:40:00,45.1,20.4,29.93,North,349,3.0,9.0,37,0.00,,,0.06,HR-IXPWINDi_r2_v1.2.,2013-02-20 00:40:00,
2013-02-19 19:46:00,45.0,20.9,29.94,NNW,336,0.0,9.0,38,0.00,,,0.06,HR-IXPWINDi_r2_v1.2.,2013-02-20 00:46:00,
2013-02-19 19:51:00,45.0,19.7,29.93,NW,304,5.0,9.0,36,0.00,,,0.06,HR-IXPWINDi_r2_v1.2.,2013-02-20 00:51:00,
2013-02-19 19:56:00,45.0,20.9,29.93,WSW,248,4.0,10.0,38,0.00,,,0.06,HR-IXPWINDi_r2_v1.2.,2013-02-20 00:56:00,
2013-02-19 20:01:00,44.9,19.6,29.94,NNW,328,4.0,11.0,36,0.00,,,0.06,HR-IXPWINDi_r2_v1.2.,2013-02-20 01:01:00,
2013-02-19 20:06:00,44.7,18.1,29.94,WNW,286,3.0,11.0,34,0.00,,,0.06,HR-IXPWINDi_r2_v1.2.,2013-02-20 01:06:00,
2013-02-19 20:12:00,44.6,19.3,29.94,North,360,4.0,10.0,36,0.00,,,0.06,HR-IXPWINDi_r2_v1.2.,2013-02-20 01:12:00,
2013-02-19 20:17:00,44.3,19.0,29.94,South,173,2.0,8.0,36,0.00,,,0.06,HR-IXPWINDi_r2_v1.2.,2013-02-20 01:17:00,
2013-02-19 20:22:00,44.1,19.5,29.95,WNW,302,1.0,8.0,37,0.00,,,0.06,HR-IXPWINDi_r2_v1.2.,2013-02-20 01:22:00,
2013-02-19 20:27:00,44.0,16.8,29.95,WNW,290,3.0,12.0,33,0.00,,,0.06,HR-IXPWINDi_r2_v1.2.,2013-02-20 01:27:00,
2013-02-19 20:33:00,43.9,16.0,29.95,North,5,11.0,15.0,32,0.00,,,0.06,HR-IXPWINDi_r2_v1.2.,2013-02-20 01:33:00,
2013-02-19 20:38:00,43.9,16.0,29.95,ENE,74,0.0,15.0,32,0.00,,,0.06,HR-IXPWINDi_r2_v1.2.,2013-02-20 01:38:00,
2013-02-19 20:43:00,43.6,15.7,29.95,WNW,290,6.0,11.0,32,0.00,,,0.06,HR-IXPWINDi_r2_v1.2.,2013-02-20 01:43:00,
2013-02-19 20:48:00,43.3,16.1,29.96,ENE,69,1.0,8.0,33,0.00,,,0.06,HR-IXPWINDi_r2_v1.2.,2013-02-20 01:48:00,
2013-02-19 20:53:00,43.2,15.3,29.95,NNW,340,5.0,10.0,32,0.00,,,0.06,HR-IXPWINDi_r2_v1.2.,2013-02-20 01:53:00,
2013-02-19 20:58:00,43.1,16.6,29.96,NNW,341,1.0,10.0,34,0.00,,,0.06,HR-IXPWINDi_r2_v1.2.,2013-02-20 01:58:00,
2013-02-19 21:04:00,42.8,15.7,29.96,NW,309,8.0,9.0,33,0.00,,,0.06,HR-IXPWINDi_r2_v1.2.,2013-02-20 02:04:00,
2013-02-19 21:09:00,42.8,15.7,29.96,NNW,345,1.0,12.0,33,0.00,,,0.06,HR-IXPWINDi_r2_v1.2.,2013-02-20 02:09:00,
2013-02-19 21:14:00,42.6,15.5,29.96,ESE,117,2.0,12.0,33,0.00,,,0.06,HR-IXPWINDi_r2_v1.2.,2013-02-20 02:14:00,
2013-02-19 21:19:00,42.5,16.1,29.96,South,172,2.0,11.0,34,0.00,,,0.06,HR-IXPWINDi_r2_v1.2.,2013-02-20 02:19:00,
2013-02-19 21:25:00,42.4,16.0,29.97,NW,316,3.0,11.0,34,0.00,,,0.06,HR-IXPWINDi_r2_v1.2.,2013-02-20 02:25:00,
2013-02-19 21:30:00,42.3,15.9,29.97,NNE,33,6.0,12.0,34,0.00,,,0.06,HR-IXPWINDi_r2_v1.2.,2013-02-20 02:30:00,
2013-02-19 21:35:00,42.2,16.5,29.97,NW,317,9.0,15.0,35,0.00,,,0.06,HR-IXPWINDi_r2_v1.2.,2013-02-20 02:35:00,
2013-02-19 21:40:00,42.1,16.4,29.97,WNW,298,5.0,15.0,35,0.00,,,0.06,HR-IXPWINDi_r2_v1.2.,2013-02-20 02:40:00,
2013-02-19 21:46:00,41.9,16.9,29.97,WNW,296,3.0,12.0,36,0.00,,,0.06,HR-IXPWINDi_r2_v1.2.,2013-02-20 02:46:00,
2013-02-19 21:51:00,41.6,16.0,29.97,WNW,294,2.0,15.0,35,0.00,,,0.06,HR-IXPWINDi_r2_v1.2.,2013-02-20 02:51:00,
2013-02-19 21:56:00,41.5,16.5,29.98,NW,305,0.0,15.0,36,0.00,,,0.06,HR-IXPWINDi_r2_v1.2.,2013-02-20 02:56:00,
2013-02-19 22:01:00,41.0,16.7,29.98,WNW,298,0.0,10.0,37,0.00,,,0.06,HR-IXPWINDi_r2_v1.2.,2013-02-20 03:01:00,
2013-02-19 22:06:00,40.7,17.1,29.98,NW,326,1.0,7.0,38,0.00,,,0.06,HR-IXPWINDi_r2_v1.2.,2013-02-20 03:06:00,
2013-02-19 22:12:00,40.5,16.9,29.98,WNW,303,3.0,7.0,38,0.00,,,0.06,HR-IXPWINDi_r2_v1.2.,2013-02-20 03:12:00,
2013-02-19 22:17:00,40.3,17.3,29.99,NW,304,5.0,8.0,39,0.00,,,0.06,HR-IXPWINDi_r2_v1.2.,2013-02-20 03:17:00,
2013-02-19 22:22:00,40.3,17.3,29.98,NW,322,3.0,8.0,39,0.00,,,0.06,HR-IXPWINDi_r2_v1.2.,2013-02-20 03:22:00,
2013-02-19 22:27:00,40.2,17.2,29.98,NE,51,0.0,11.0,39,0.00,,,0.06,HR-IXPWINDi_r2_v1.2.,2013-02-20 03:27:00,
2013-02-19 22:32:00,40.1,17.1,29.98,SW,225,3.0,11.0,39,0.00,,,0.06,HR-IXPWINDi_r2_v1.2.,2013-02-20 03:32:00,
2013-02-19 22:37:00,39.9,17.5,29.99,WNW,296,3.0,8.0,40,0.00,,,0.06,HR-IXPWINDi_r2_v1.2.,2013-02-20 03:37:00,
2013-02-19 22:43:00,39.8,17.5,29.98,NNE,30,4.0,13.0,40,0.00,,,0.06,HR-IXPWINDi_r2_v1.2.,2013-02-20 03:43:00,
2013-02-19 22:48:00,39.8,17.5,29.98,WSW,258,1.0,13.0,40,0.00,,,0.06,HR-IXPWINDi_r2_v1.2.,2013-02-20 03:48:00,
2013-02-19 22:53:00,39.7,16.8,29.98,NNW,327,4.0,11.0,39,0.00,,,0.06,HR-IXPWINDi_r2_v1.2.,2013-02-20 03:53:00,
2013-02-19 22:58:00,39.5,17.2,29.99,NW,306,3.0,11.0,40,0.00,,,0.06,HR-IXPWINDi_r2_v1.2.,2013-02-20 03:58:00,
2013-02-19 23:04:00,39.4,17.1,29.99,West,279,2.0,10.0,40,0.00,,,0.06,HR-IXPWINDi_r2_v1.2.,2013-02-20 04:04:00,
2013-02-19 23:09:00,39.3,17.0,29.99,NE,51,2.0,10.0,40,0.00,,,0.06,HR-IXPWINDi_r2_v1.2.,2013-02-20 04:09:00,
2013-02-19 23:14:00,39.2,18.0,29.99,ENE,77,0.0,8.0,42,0.00,,,0.06,HR-IXPWINDi_r2_v1.2.,2013-02-20 04:14:00,
2013-02-19 23:19:00,39.0,17.9,29.99,NW,321,1.0,8.0,42,0.00,,,0.06,HR-IXPWINDi_r2_v1.2.,2013-02-20 04:19:00,
2013-02-19 23:25:00,38.7,17.6,29.99,East,96,3.0,8.0,42,0.00,,,0.06,HR-IXPWINDi_r2_v1.2.,2013-02-20 04:25:00,
2013-02-19 23:30:00,38.6,18.0,29.99,WNW,303,5.0,8.0,43,0.00,,,0.06,HR-IXPWINDi_r2_v1.2.,2013-02-20 04:30:00,
2013-02-19 23:35:00,38.6,18.0,29.99,SSW,198,0.0,7.0,43,0.00,,,0.06,HR-IXPWINDi_r2_v1.2.,2013-02-20 04:35:00,
2013-02-19 23:40:00,38.5,18.0,29.99,WNW,297,2.0,7.0,43,0.00,,,0.06,HR-IXPWINDi_r2_v1.2.,2013-02-20 04:40:00,
2013-02-19 23:45:00,38.4,17.9,29.99,NNE,32,3.0,7.0,43,0.00,,,0.06,HR-IXPWINDi_r2_v1.2.,2013-02-20 04:45:00,
2013-02-19 23:50:00,38.2,17.7,29.99,WNW,300,1.0,7.0,43,0.00,,,0.06,HR-IXPWINDi_r2_v1.2.,2013-02-20 04:50:00,
2013-02-19 23:56:00,38.0,17.5,29.99,NW,320,4.0,7.0,43,0.00,,,0.06,HR-IXPWINDi_r2_v1.2.,2013-02-20 04:56:00,